sensor_id;sensor_type;location;lat;lon;timestamp;P1;durP1;ratioP1;P2;durP2;ratioP2
4307;SDS011;2167;53.448;9.984;2023-03-12T03:01:57;11.90;;;2.80;;
4307;SDS011;2167;53.448;9.984;2023-03-12T03:04:24;4.83;;;2.87;;
4307;SDS011;2167;53.448;9.984;2023-03-12T03:06:52;3.07;;;2.80;;
4307;SDS011;2167;53.448;9.984;2023-03-12T03:09:18;8.53;;;2.97;;
4307;SDS011;2167;53.448;9.984;2023-03-12T03:11:46;4.47;;;2.40;;
4307;SDS011;2167;53.448;9.984;2023-03-12T03:14:33;3.50;;;2.60;;
4307;SDS011;2167;53.448;9.984;2023-03-12T03:16:58;2.07;;;1.90;;
4307;SDS011;2167;53.448;9.984;2023-03-12T03:23:10;3.27;;;1.80;;
4307;SDS011;2167;53.448;9.984;2023-03-12T03:25:36;1.93;;;1.77;;
4307;SDS011;2167;53.448;9.984;2023-03-12T03:28:01;4.73;;;2.73;;
4307;SDS011;2167;53.448;9.984;2023-03-12T03:30:27;3.40;;;1.70;;
4307;SDS011;2167;53.448;9.984;2023-03-12T03:32:52;3.50;;;2.97;;
4307;SDS011;2167;53.448;9.984;2023-03-12T03:35:18;2.77;;;2.57;;
4307;SDS011;2167;53.448;9.984;2023-03-12T03:37:46;3.87;;;2.57;;
4307;SDS011;2167;53.448;9.984;2023-03-12T03:40:11;2.23;;;2.07;;
4307;SDS011;2167;53.448;9.984;2023-03-12T03:42:37;5.10;;;1.70;;
4307;SDS011;2167;53.448;9.984;2023-03-12T03:45:04;4.40;;;2.37;;
4307;SDS011;2167;53.448;9.984;2023-03-12T03:47:31;4.13;;;3.42;;
4307;SDS011;2167;53.448;9.984;2023-03-12T03:49:57;3.37;;;2.97;;
4307;SDS011;2167;53.448;9.984;2023-03-12T03:52:23;2.87;;;2.37;;
4307;SDS011;2167;53.448;9.984;2023-03-12T03:54:51;9.10;;;2.20;;
4307;SDS011;2167;53.448;9.984;2023-03-12T03:57:20;10.90;;;3.03;;
4307;SDS011;2167;53.448;9.984;2023-03-12T03:59:46;3.90;;;2.47;;
4307;SDS011;2167;53.448;9.984;2023-03-12T04:02:12;2.27;;;1.80;;
4307;SDS011;2167;53.448;9.984;2023-03-12T04:04:37;5.97;;;2.85;;
4307;SDS011;2167;53.448;9.984;2023-03-12T04:07:03;2.67;;;2.37;;
4307;SDS011;2167;53.448;9.984;2023-03-12T04:09:29;3.47;;;2.00;;
4307;SDS011;2167;53.448;9.984;2023-03-12T04:11:54;7.43;;;2.20;;
4307;SDS011;2167;53.448;9.984;2023-03-12T04:14:20;3.90;;;3.60;;
4307;SDS011;2167;53.448;9.984;2023-03-12T04:16:46;2.50;;;2.30;;
4307;SDS011;2167;53.448;9.984;2023-03-12T04:19:12;4.30;;;2.50;;
4307;SDS011;2167;53.448;9.984;2023-03-12T04:21:37;2.87;;;2.60;;
4307;SDS011;2167;53.448;9.984;2023-03-12T04:24:03;4.80;;;3.53;;
4307;SDS011;2167;53.448;9.984;2023-03-12T04:26:30;2.27;;;2.03;;
4307;SDS011;2167;53.448;9.984;2023-03-12T04:28:55;4.37;;;3.77;;
4307;SDS011;2167;53.448;9.984;2023-03-12T04:31:21;2.57;;;1.73;;
4307;SDS011;2167;53.448;9.984;2023-03-12T04:33:47;3.40;;;2.10;;
4307;SDS011;2167;53.448;9.984;2023-03-12T04:36:12;2.93;;;2.60;;
4307;SDS011;2167;53.448;9.984;2023-03-12T04:38:39;20.77;;;3.93;;
4307;SDS011;2167;53.448;9.984;2023-03-12T04:41:06;5.27;;;1.97;;
4307;SDS011;2167;53.448;9.984;2023-03-12T04:43:33;3.63;;;3.27;;
4307;SDS011;2167;53.448;9.984;2023-03-12T04:45:59;6.40;;;3.77;;
4307;SDS011;2167;53.448;9.984;2023-03-12T04:48:25;10.10;;;2.33;;
4307;SDS011;2167;53.448;9.984;2023-03-12T04:50:51;5.20;;;3.30;;
4307;SDS011;2167;53.448;9.984;2023-03-12T04:53:17;4.53;;;3.50;;
4307;SDS011;2167;53.448;9.984;2023-03-12T04:55:43;4.80;;;2.73;;
4307;SDS011;2167;53.448;9.984;2023-03-12T04:58:09;5.10;;;2.60;;
4307;SDS011;2167;53.448;9.984;2023-03-12T05:00:34;12.00;;;4.30;;
4307;SDS011;2167;53.448;9.984;2023-03-12T05:03:00;2.80;;;2.60;;
4307;SDS011;2167;53.448;9.984;2023-03-12T05:05:26;4.20;;;3.03;;
4307;SDS011;2167;53.448;9.984;2023-03-12T05:07:52;3.60;;;2.60;;
4307;SDS011;2167;53.448;9.984;2023-03-12T05:10:18;3.23;;;2.33;;
4307;SDS011;2167;53.448;9.984;2023-03-12T05:12:43;6.83;;;3.37;;
4307;SDS011;2167;53.448;9.984;2023-03-12T05:15:09;4.37;;;2.70;;
4307;SDS011;2167;53.448;9.984;2023-03-12T05:17:35;4.20;;;2.83;;
4307;SDS011;2167;53.448;9.984;2023-03-12T05:20:00;2.47;;;2.27;;
4307;SDS011;2167;53.448;9.984;2023-03-12T05:22:26;7.93;;;3.97;;
4307;SDS011;2167;53.448;9.984;2023-03-12T05:24:52;7.80;;;3.60;;
4307;SDS011;2167;53.448;9.984;2023-03-12T05:27:17;3.47;;;3.17;;
4307;SDS011;2167;53.448;9.984;2023-03-12T05:29:44;4.70;;;3.20;;
4307;SDS011;2167;53.448;9.984;2023-03-12T05:32:09;3.60;;;3.30;;
4307;SDS011;2167;53.448;9.984;2023-03-12T05:34:38;7.27;;;3.70;;
4307;SDS011;2167;53.448;9.984;2023-03-12T05:37:03;9.00;;;3.50;;
4307;SDS011;2167;53.448;9.984;2023-03-12T05:39:29;7.30;;;3.33;;
4307;SDS011;2167;53.448;9.984;2023-03-12T05:41:54;5.50;;;3.67;;
4307;SDS011;2167;53.448;9.984;2023-03-12T05:44:21;9.50;;;5.88;;
4307;SDS011;2167;53.448;9.984;2023-03-12T05:46:49;5.67;;;5.07;;
4307;SDS011;2167;53.448;9.984;2023-03-12T05:49:15;6.53;;;3.90;;
4307;SDS011;2167;53.448;9.984;2023-03-12T05:51:42;4.20;;;3.67;;
4307;SDS011;2167;53.448;9.984;2023-03-12T05:54:08;4.10;;;3.63;;
4307;SDS011;2167;53.448;9.984;2023-03-12T05:56:34;8.03;;;4.30;;
4307;SDS011;2167;53.448;9.984;2023-03-12T05:59:01;5.73;;;3.60;;
4307;SDS011;2167;53.448;9.984;2023-03-12T06:01:27;13.13;;;6.50;;
4307;SDS011;2167;53.448;9.984;2023-03-12T06:03:54;6.53;;;4.60;;
4307;SDS011;2167;53.448;9.984;2023-03-12T06:06:20;3.97;;;2.93;;
4307;SDS011;2167;53.448;9.984;2023-03-12T06:08:46;3.67;;;3.00;;
4307;SDS011;2167;53.448;9.984;2023-03-12T06:11:14;4.33;;;3.80;;
4307;SDS011;2167;53.448;9.984;2023-03-12T06:13:40;4.40;;;3.97;;
4307;SDS011;2167;53.448;9.984;2023-03-12T06:16:07;5.60;;;3.90;;
4307;SDS011;2167;53.448;9.984;2023-03-12T06:18:36;5.20;;;4.70;;
4307;SDS011;2167;53.448;9.984;2023-03-12T06:21:15;10.93;;;4.90;;
4307;SDS011;2167;53.448;9.984;2023-03-12T06:23:43;4.53;;;3.40;;
4307;SDS011;2167;53.448;9.984;2023-03-12T06:26:10;4.30;;;3.90;;
4307;SDS011;2167;53.448;9.984;2023-03-12T06:28:37;5.97;;;4.37;;
4307;SDS011;2167;53.448;9.984;2023-03-12T06:31:03;10.87;;;3.00;;
4307;SDS011;2167;53.448;9.984;2023-03-12T06:33:29;7.95;;;5.35;;
4307;SDS011;2167;53.448;9.984;2023-03-12T06:35:58;6.00;;;5.40;;
4307;SDS011;2167;53.448;9.984;2023-03-12T06:38:27;4.57;;;3.60;;
4307;SDS011;2167;53.448;9.984;2023-03-12T06:43:32;3.73;;;2.73;;
4307;SDS011;2167;53.448;9.984;2023-03-12T06:46:01;8.73;;;3.23;;
4307;SDS011;2167;53.448;9.984;2023-03-12T06:48:36;3.57;;;3.07;;
4307;SDS011;2167;53.448;9.984;2023-03-12T06:51:08;8.63;;;4.90;;
4307;SDS011;2167;53.448;9.984;2023-03-12T06:53:38;4.00;;;3.70;;
4307;SDS011;2167;53.448;9.984;2023-03-12T06:56:04;4.13;;;2.90;;
4307;SDS011;2167;53.448;9.984;2023-03-12T06:58:30;3.63;;;2.67;;
4307;SDS011;2167;53.448;9.984;2023-03-12T07:00:55;20.63;;;4.13;;
4307;SDS011;2167;53.448;9.984;2023-03-12T07:03:21;2.70;;;2.20;;
4307;SDS011;2167;53.448;9.984;2023-03-12T07:05:48;6.25;;;3.72;;
4307;SDS011;2167;53.448;9.984;2023-03-12T07:08:15;3.33;;;2.57;;
4307;SDS011;2167;53.448;9.984;2023-03-12T07:10:41;6.00;;;3.53;;
4307;SDS011;2167;53.448;9.984;2023-03-12T07:13:07;3.93;;;3.17;;
4307;SDS011;2167;53.448;9.984;2023-03-12T07:15:33;2.47;;;2.10;;
4307;SDS011;2167;53.448;9.984;2023-03-12T07:18:09;7.20;;;4.50;;
4307;SDS011;2167;53.448;9.984;2023-03-12T07:20:36;5.30;;;2.33;;
4307;SDS011;2167;53.448;9.984;2023-03-12T07:23:04;10.27;;;4.80;;
4307;SDS011;2167;53.448;9.984;2023-03-12T07:25:30;8.50;;;3.60;;
4307;SDS011;2167;53.448;9.984;2023-03-12T07:27:55;5.37;;;3.37;;
4307;SDS011;2167;53.448;9.984;2023-03-12T07:30:21;2.47;;;2.10;;
4307;SDS011;2167;53.448;9.984;2023-03-12T07:32:47;2.70;;;2.50;;
4307;SDS011;2167;53.448;9.984;2023-03-12T07:35:13;3.50;;;2.67;;
4307;SDS011;2167;53.448;9.984;2023-03-12T07:37:38;4.90;;;2.97;;
4307;SDS011;2167;53.448;9.984;2023-03-12T07:40:04;4.67;;;3.33;;
4307;SDS011;2167;53.448;9.984;2023-03-12T07:42:31;3.23;;;2.90;;
4307;SDS011;2167;53.448;9.984;2023-03-12T07:44:57;3.20;;;2.67;;
4307;SDS011;2167;53.448;9.984;2023-03-12T07:47:23;19.50;;;3.77;;
4307;SDS011;2167;53.448;9.984;2023-03-12T07:49:49;6.80;;;3.40;;
4307;SDS011;2167;53.448;9.984;2023-03-12T07:52:15;3.00;;;2.63;;
4307;SDS011;2167;53.448;9.984;2023-03-12T07:54:44;3.97;;;2.83;;
4307;SDS011;2167;53.448;9.984;2023-03-12T07:57:10;2.40;;;2.20;;
4307;SDS011;2167;53.448;9.984;2023-03-12T07:59:37;3.40;;;2.70;;
4307;SDS011;2167;53.448;9.984;2023-03-12T08:02:03;8.17;;;2.63;;
4307;SDS011;2167;53.448;9.984;2023-03-12T08:04:28;2.37;;;2.17;;
4307;SDS011;2167;53.448;9.984;2023-03-12T08:06:54;6.67;;;3.70;;
4307;SDS011;2167;53.448;9.984;2023-03-12T08:09:19;2.83;;;1.80;;
4307;SDS011;2167;53.448;9.984;2023-03-12T08:11:45;7.65;;;4.28;;
4307;SDS011;2167;53.448;9.984;2023-03-12T08:14:11;4.00;;;2.77;;
4307;SDS011;2167;53.448;9.984;2023-03-12T08:16:36;4.30;;;3.10;;
4307;SDS011;2167;53.448;9.984;2023-03-12T08:19:02;3.50;;;3.20;;
4307;SDS011;2167;53.448;9.984;2023-03-12T08:21:28;2.57;;;2.37;;
4307;SDS011;2167;53.448;9.984;2023-03-12T08:23:56;3.53;;;2.67;;
4307;SDS011;2167;53.448;9.984;2023-03-12T08:26:22;3.27;;;2.80;;
4307;SDS011;2167;53.448;9.984;2023-03-12T08:28:48;4.33;;;3.80;;
4307;SDS011;2167;53.448;9.984;2023-03-12T08:31:14;5.23;;;3.07;;
4307;SDS011;2167;53.448;9.984;2023-03-12T08:33:39;5.70;;;5.17;;
4307;SDS011;2167;53.448;9.984;2023-03-12T08:36:10;3.50;;;2.47;;
4307;SDS011;2167;53.448;9.984;2023-03-12T08:38:40;3.47;;;2.30;;
4307;SDS011;2167;53.448;9.984;2023-03-12T08:41:26;3.33;;;2.20;;
4307;SDS011;2167;53.448;9.984;2023-03-12T08:44:31;3.80;;;2.30;;
4307;SDS011;2167;53.448;9.984;2023-03-12T08:47:28;4.90;;;2.57;;
4307;SDS011;2167;53.448;9.984;2023-03-12T08:49:54;3.20;;;2.90;;
4307;SDS011;2167;53.448;9.984;2023-03-12T08:55:43;5.77;;;2.77;;
4307;SDS011;2167;53.448;9.984;2023-03-12T08:58:09;2.57;;;2.37;;
4307;SDS011;2167;53.448;9.984;2023-03-12T09:00:35;5.90;;;2.93;;
4307;SDS011;2167;53.448;9.984;2023-03-12T09:03:00;6.10;;;2.60;;
4307;SDS011;2167;53.448;9.984;2023-03-12T09:05:26;3.70;;;2.30;;
4307;SDS011;2167;53.448;9.984;2023-03-12T09:07:55;5.00;;;2.20;;
4307;SDS011;2167;53.448;9.984;2023-03-12T09:10:21;4.53;;;3.07;;
4307;SDS011;2167;53.448;9.984;2023-03-12T09:12:47;2.60;;;2.00;;
4307;SDS011;2167;53.448;9.984;2023-03-12T09:15:13;3.70;;;2.50;;
4307;SDS011;2167;53.448;9.984;2023-03-12T09:17:39;1.43;;;1.33;;
4307;SDS011;2167;53.448;9.984;2023-03-12T09:20:06;4.87;;;2.23;;
4307;SDS011;2167;53.448;9.984;2023-03-12T09:22:33;4.83;;;2.57;;
4307;SDS011;2167;53.448;9.984;2023-03-12T09:25:01;18.63;;;2.50;;
4307;SDS011;2167;53.448;9.984;2023-03-12T09:27:47;2.73;;;2.43;;
4307;SDS011;2167;53.448;9.984;2023-03-12T09:30:14;4.87;;;2.40;;
4307;SDS011;2167;53.448;9.984;2023-03-12T09:32:41;2.83;;;2.43;;
4307;SDS011;2167;53.448;9.984;2023-03-12T09:35:09;3.90;;;2.60;;
4307;SDS011;2167;53.448;9.984;2023-03-12T09:37:35;2.97;;;1.70;;
4307;SDS011;2167;53.448;9.984;2023-03-12T09:40:00;3.40;;;2.17;;
4307;SDS011;2167;53.448;9.984;2023-03-12T09:44:57;4.23;;;2.67;;
4307;SDS011;2167;53.448;9.984;2023-03-12T09:47:29;7.00;;;3.13;;
4307;SDS011;2167;53.448;9.984;2023-03-12T09:50:03;2.47;;;2.00;;
4307;SDS011;2167;53.448;9.984;2023-03-12T09:52:55;5.30;;;1.80;;
4307;SDS011;2167;53.448;9.984;2023-03-12T09:55:41;7.43;;;2.40;;
4307;SDS011;2167;53.448;9.984;2023-03-12T09:58:21;6.53;;;2.60;;
4307;SDS011;2167;53.448;9.984;2023-03-12T10:00:54;4.47;;;2.70;;
4307;SDS011;2167;53.448;9.984;2023-03-12T10:03:41;40.73;;;2.77;;
4307;SDS011;2167;53.448;9.984;2023-03-12T10:06:20;2.88;;;2.60;;
4307;SDS011;2167;53.448;9.984;2023-03-12T10:11:57;2.60;;;2.33;;
4307;SDS011;2167;53.448;9.984;2023-03-12T10:26:13;2.37;;;2.10;;
4307;SDS011;2167;53.448;9.984;2023-03-12T10:28:54;3.40;;;2.67;;
4307;SDS011;2167;53.448;9.984;2023-03-12T10:31:36;2.57;;;2.03;;
4307;SDS011;2167;53.448;9.984;2023-03-12T10:36:50;6.10;;;2.50;;
4307;SDS011;2167;53.448;9.984;2023-03-12T10:39:17;4.63;;;1.80;;
4307;SDS011;2167;53.448;9.984;2023-03-12T10:41:44;3.07;;;2.20;;
4307;SDS011;2167;53.448;9.984;2023-03-12T10:44:22;6.37;;;2.30;;
4307;SDS011;2167;53.448;9.984;2023-03-12T10:49:52;5.70;;;2.50;;
4307;SDS011;2167;53.448;9.984;2023-03-12T10:52:19;4.95;;;2.70;;
4307;SDS011;2167;53.448;9.984;2023-03-12T10:54:47;4.53;;;2.63;;
4307;SDS011;2167;53.448;9.984;2023-03-12T10:57:15;6.20;;;2.60;;
4307;SDS011;2167;53.448;9.984;2023-03-12T10:59:42;4.73;;;3.13;;
4307;SDS011;2167;53.448;9.984;2023-03-12T11:04:57;1.87;;;1.60;;
4307;SDS011;2167;53.448;9.984;2023-03-12T11:12:31;2.10;;;1.83;;
4307;SDS011;2167;53.448;9.984;2023-03-12T11:15:00;2.10;;;1.70;;
4307;SDS011;2167;53.448;9.984;2023-03-12T11:20:53;1.47;;;1.27;;
4307;SDS011;2167;53.448;9.984;2023-03-12T11:23:26;3.70;;;1.30;;
4307;SDS011;2167;53.448;9.984;2023-03-12T11:26:01;6.20;;;1.90;;
4307;SDS011;2167;53.448;9.984;2023-03-12T11:28:31;1.93;;;1.63;;
4307;SDS011;2167;53.448;9.984;2023-03-12T11:31:08;10.00;;;1.70;;
4307;SDS011;2167;53.448;9.984;2023-03-12T11:33:42;8.60;;;2.27;;
4307;SDS011;2167;53.448;9.984;2023-03-12T12:01:40;2.33;;;2.23;;
4307;SDS011;2167;53.448;9.984;2023-03-12T12:09:40;3.13;;;1.30;;
4307;SDS011;2167;53.448;9.984;2023-03-12T12:15:20;2.50;;;1.73;;
4307;SDS011;2167;53.448;9.984;2023-03-12T12:20:42;6.70;;;1.47;;
4307;SDS011;2167;53.448;9.984;2023-03-12T12:23:21;2.60;;;1.50;;
4307;SDS011;2167;53.448;9.984;2023-03-12T12:28:57;6.53;;;1.57;;
4307;SDS011;2167;53.448;9.984;2023-03-12T12:34:14;1.20;;;1.20;;
4307;SDS011;2167;53.448;9.984;2023-03-12T12:42:32;3.83;;;1.63;;
4307;SDS011;2167;53.448;9.984;2023-03-12T12:45:03;6.80;;;1.60;;
4307;SDS011;2167;53.448;9.984;2023-03-12T12:47:33;1.23;;;1.10;;
4307;SDS011;2167;53.448;9.984;2023-03-12T12:50:19;3.63;;;1.60;;
4307;SDS011;2167;53.448;9.984;2023-03-12T12:52:51;9.93;;;1.97;;
4307;SDS011;2167;53.448;9.984;2023-03-12T12:55:31;0.90;;;0.77;;
4307;SDS011;2167;53.448;9.984;2023-03-12T12:58:09;3.20;;;1.53;;
4307;SDS011;2167;53.448;9.984;2023-03-12T13:00:53;2.50;;;2.35;;
4307;SDS011;2167;53.448;9.984;2023-03-12T13:03:24;2.17;;;1.97;;
4307;SDS011;2167;53.448;9.984;2023-03-12T13:08:56;3.30;;;1.53;;
4307;SDS011;2167;53.448;9.984;2023-03-12T13:11:25;2.83;;;1.63;;
4307;SDS011;2167;53.448;9.984;2023-03-12T13:16:34;1.90;;;1.70;;
4307;SDS011;2167;53.448;9.984;2023-03-12T13:24:14;3.10;;;1.33;;
4307;SDS011;2167;53.448;9.984;2023-03-12T13:31:53;1.70;;;1.60;;
4307;SDS011;2167;53.448;9.984;2023-03-12T13:36:56;1.83;;;1.50;;
4307;SDS011;2167;53.448;9.984;2023-03-12T13:39:28;2.13;;;1.40;;
4307;SDS011;2167;53.448;9.984;2023-03-12T13:41:57;6.40;;;1.47;;
4307;SDS011;2167;53.448;9.984;2023-03-12T13:47:04;2.47;;;1.40;;
4307;SDS011;2167;53.448;9.984;2023-03-12T13:50:07;2.83;;;1.53;;
4307;SDS011;2167;53.448;9.984;2023-03-12T13:55:15;5.23;;;1.97;;
4307;SDS011;2167;53.448;9.984;2023-03-12T13:58:14;3.30;;;1.50;;
4307;SDS011;2167;53.448;9.984;2023-03-12T14:00:50;1.40;;;1.03;;
4307;SDS011;2167;53.448;9.984;2023-03-12T14:03:26;3.63;;;1.80;;
4307;SDS011;2167;53.448;9.984;2023-03-12T14:05:59;1.90;;;1.43;;
4307;SDS011;2167;53.448;9.984;2023-03-12T14:16:43;1.70;;;1.43;;
4307;SDS011;2167;53.448;9.984;2023-03-12T14:19:13;1.63;;;1.63;;
4307;SDS011;2167;53.448;9.984;2023-03-12T14:21:42;2.97;;;1.43;;
4307;SDS011;2167;53.448;9.984;2023-03-12T14:24:21;4.17;;;2.67;;
4307;SDS011;2167;53.448;9.984;2023-03-12T14:26:54;1.70;;;1.60;;
4307;SDS011;2167;53.448;9.984;2023-03-12T14:29:24;4.17;;;2.40;;
4307;SDS011;2167;53.448;9.984;2023-03-12T14:32:16;2.60;;;1.83;;
4307;SDS011;2167;53.448;9.984;2023-03-12T14:34:45;1.97;;;1.70;;
4307;SDS011;2167;53.448;9.984;2023-03-12T14:37:17;2.83;;;1.67;;
4307;SDS011;2167;53.448;9.984;2023-03-12T14:39:54;3.80;;;1.80;;
4307;SDS011;2167;53.448;9.984;2023-03-12T14:42:31;2.83;;;2.00;;
4307;SDS011;2167;53.448;9.984;2023-03-12T14:45:08;1.77;;;1.67;;
4307;SDS011;2167;53.448;9.984;2023-03-12T14:47:40;2.87;;;2.57;;
4307;SDS011;2167;53.448;9.984;2023-03-12T14:50:05;3.63;;;2.00;;
4307;SDS011;2167;53.448;9.984;2023-03-12T14:52:39;3.50;;;2.70;;
4307;SDS011;2167;53.448;9.984;2023-03-12T14:55:16;2.47;;;2.27;;
4307;SDS011;2167;53.448;9.984;2023-03-12T14:58:05;3.30;;;2.00;;
4307;SDS011;2167;53.448;9.984;2023-03-12T15:00:38;3.07;;;2.17;;
4307;SDS011;2167;53.448;9.984;2023-03-12T15:03:06;1.90;;;1.60;;
4307;SDS011;2167;53.448;9.984;2023-03-12T15:05:43;3.50;;;2.97;;
4307;SDS011;2167;53.448;9.984;2023-03-12T15:08:10;3.10;;;2.80;;
4307;SDS011;2167;53.448;9.984;2023-03-12T15:10:37;3.50;;;3.10;;
4307;SDS011;2167;53.448;9.984;2023-03-12T15:13:03;3.90;;;3.13;;
4307;SDS011;2167;53.448;9.984;2023-03-12T15:15:34;2.40;;;2.20;;
4307;SDS011;2167;53.448;9.984;2023-03-12T15:18:05;3.00;;;2.80;;
4307;SDS011;2167;53.448;9.984;2023-03-12T15:20:35;3.00;;;2.63;;
4307;SDS011;2167;53.448;9.984;2023-03-12T15:23:02;2.43;;;1.73;;
4307;SDS011;2167;53.448;9.984;2023-03-12T15:25:30;1.90;;;1.80;;
4307;SDS011;2167;53.448;9.984;2023-03-12T15:28:23;1.80;;;1.70;;
4307;SDS011;2167;53.448;9.984;2023-03-12T15:31:05;1.80;;;1.63;;
4307;SDS011;2167;53.448;9.984;2023-03-12T15:33:41;4.37;;;2.00;;
4307;SDS011;2167;53.448;9.984;2023-03-12T15:38:49;3.77;;;1.57;;
4307;SDS011;2167;53.448;9.984;2023-03-12T15:41:24;3.67;;;3.15;;
4307;SDS011;2167;53.448;9.984;2023-03-12T15:43:52;3.67;;;2.47;;
4307;SDS011;2167;53.448;9.984;2023-03-12T15:46:20;1.40;;;1.30;;
4307;SDS011;2167;53.448;9.984;2023-03-12T15:48:49;2.00;;;1.90;;
4307;SDS011;2167;53.448;9.984;2023-03-12T15:53:58;2.73;;;2.10;;
4307;SDS011;2167;53.448;9.984;2023-03-12T15:56:24;2.50;;;1.80;;
4307;SDS011;2167;53.448;9.984;2023-03-12T15:59:03;4.85;;;3.17;;
4307;SDS011;2167;53.448;9.984;2023-03-12T16:01:44;3.10;;;2.53;;
4307;SDS011;2167;53.448;9.984;2023-03-12T16:04:15;4.27;;;2.43;;
4307;SDS011;2167;53.448;9.984;2023-03-12T16:06:41;2.43;;;2.23;;
4307;SDS011;2167;53.448;9.984;2023-03-12T16:09:12;2.40;;;2.20;;
4307;SDS011;2167;53.448;9.984;2023-03-12T16:11:48;3.33;;;2.00;;
4307;SDS011;2167;53.448;9.984;2023-03-12T16:16:50;2.40;;;1.90;;
4307;SDS011;2167;53.448;9.984;2023-03-12T16:19:17;2.40;;;2.20;;
4307;SDS011;2167;53.448;9.984;2023-03-12T16:21:44;1.80;;;1.70;;
4307;SDS011;2167;53.448;9.984;2023-03-12T16:24:11;3.50;;;2.93;;
4307;SDS011;2167;53.448;9.984;2023-03-12T16:26:46;3.00;;;2.80;;
4307;SDS011;2167;53.448;9.984;2023-03-12T16:29:15;3.03;;;2.70;;
4307;SDS011;2167;53.448;9.984;2023-03-12T16:31:42;9.03;;;4.77;;
4307;SDS011;2167;53.448;9.984;2023-03-12T16:34:09;9.20;;;5.03;;
4307;SDS011;2167;53.448;9.984;2023-03-12T16:36:35;5.20;;;2.80;;
4307;SDS011;2167;53.448;9.984;2023-03-12T16:39:00;4.60;;;3.13;;
4307;SDS011;2167;53.448;9.984;2023-03-12T16:41:26;2.80;;;2.27;;
4307;SDS011;2167;53.448;9.984;2023-03-12T16:43:52;2.20;;;2.00;;
4307;SDS011;2167;53.448;9.984;2023-03-12T16:46:19;3.47;;;2.47;;
4307;SDS011;2167;53.448;9.984;2023-03-12T16:48:49;5.78;;;3.28;;
4307;SDS011;2167;53.448;9.984;2023-03-12T16:51:16;4.00;;;2.43;;
4307;SDS011;2167;53.448;9.984;2023-03-12T16:53:42;2.20;;;1.70;;
4307;SDS011;2167;53.448;9.984;2023-03-12T16:56:12;2.47;;;2.27;;
4307;SDS011;2167;53.448;9.984;2023-03-12T16:58:41;4.40;;;2.70;;
4307;SDS011;2167;53.448;9.984;2023-03-12T17:01:09;3.30;;;2.63;;
4307;SDS011;2167;53.448;9.984;2023-03-12T17:03:37;2.90;;;2.17;;
4307;SDS011;2167;53.448;9.984;2023-03-12T17:06:05;5.57;;;3.85;;
4307;SDS011;2167;53.448;9.984;2023-03-12T17:08:31;5.70;;;3.17;;
4307;SDS011;2167;53.448;9.984;2023-03-12T17:10:57;3.20;;;2.93;;
4307;SDS011;2167;53.448;9.984;2023-03-12T17:13:24;4.97;;;3.20;;
4307;SDS011;2167;53.448;9.984;2023-03-12T17:15:52;5.30;;;3.70;;
4307;SDS011;2167;53.448;9.984;2023-03-12T17:18:19;7.07;;;4.53;;
4307;SDS011;2167;53.448;9.984;2023-03-12T17:20:45;5.70;;;3.90;;
4307;SDS011;2167;53.448;9.984;2023-03-12T17:23:13;5.95;;;4.35;;
4307;SDS011;2167;53.448;9.984;2023-03-12T17:25:40;5.57;;;4.40;;
4307;SDS011;2167;53.448;9.984;2023-03-12T17:28:07;4.83;;;4.10;;
4307;SDS011;2167;53.448;9.984;2023-03-12T17:30:33;7.90;;;4.67;;
4307;SDS011;2167;53.448;9.984;2023-03-12T17:33:07;5.67;;;4.50;;
4307;SDS011;2167;53.448;9.984;2023-03-12T17:35:36;4.70;;;4.30;;
4307;SDS011;2167;53.448;9.984;2023-03-12T17:38:02;4.00;;;3.30;;
4307;SDS011;2167;53.448;9.984;2023-03-12T17:40:29;5.00;;;4.13;;
4307;SDS011;2167;53.448;9.984;2023-03-12T17:42:55;6.33;;;3.77;;
4307;SDS011;2167;53.448;9.984;2023-03-12T17:45:21;2.53;;;2.20;;
4307;SDS011;2167;53.448;9.984;2023-03-12T17:47:46;4.07;;;3.20;;
4307;SDS011;2167;53.448;9.984;2023-03-12T17:50:12;5.40;;;3.50;;
4307;SDS011;2167;53.448;9.984;2023-03-12T17:52:38;6.43;;;3.50;;
4307;SDS011;2167;53.448;9.984;2023-03-12T17:55:04;5.50;;;3.30;;
4307;SDS011;2167;53.448;9.984;2023-03-12T17:57:30;7.83;;;4.27;;
4307;SDS011;2167;53.448;9.984;2023-03-12T17:59:56;8.10;;;5.33;;
4307;SDS011;2167;53.448;9.984;2023-03-12T18:02:22;7.90;;;4.63;;
4307;SDS011;2167;53.448;9.984;2023-03-12T18:04:47;9.93;;;4.83;;
4307;SDS011;2167;53.448;9.984;2023-03-12T18:07:13;6.20;;;3.73;;
4307;SDS011;2167;53.448;9.984;2023-03-12T18:09:39;11.93;;;6.90;;
4307;SDS011;2167;53.448;9.984;2023-03-12T18:12:04;13.37;;;5.60;;
4307;SDS011;2167;53.448;9.984;2023-03-12T18:14:30;11.73;;;6.80;;
4307;SDS011;2167;53.448;9.984;2023-03-12T18:16:56;9.43;;;6.50;;
4307;SDS011;2167;53.448;9.984;2023-03-12T18:19:23;11.70;;;7.40;;
4307;SDS011;2167;53.448;9.984;2023-03-12T18:21:50;11.37;;;6.50;;
4307;SDS011;2167;53.448;9.984;2023-03-12T18:24:19;10.23;;;6.60;;
4307;SDS011;2167;53.448;9.984;2023-03-12T18:26:44;9.80;;;7.10;;
4307;SDS011;2167;53.448;9.984;2023-03-12T18:29:11;11.47;;;7.03;;
4307;SDS011;2167;53.448;9.984;2023-03-12T18:31:36;11.50;;;6.20;;
4307;SDS011;2167;53.448;9.984;2023-03-12T18:34:02;10.33;;;5.47;;
4307;SDS011;2167;53.448;9.984;2023-03-12T18:36:28;11.70;;;5.87;;
4307;SDS011;2167;53.448;9.984;2023-03-12T18:38:54;17.63;;;6.80;;
4307;SDS011;2167;53.448;9.984;2023-03-12T18:41:19;12.47;;;6.90;;
4307;SDS011;2167;53.448;9.984;2023-03-12T18:43:45;16.10;;;7.57;;
4307;SDS011;2167;53.448;9.984;2023-03-12T18:46:10;17.50;;;8.47;;
4307;SDS011;2167;53.448;9.984;2023-03-12T18:48:37;15.83;;;8.03;;
4307;SDS011;2167;53.448;9.984;2023-03-12T18:51:03;28.45;;;12.75;;
4307;SDS011;2167;53.448;9.984;2023-03-12T18:53:29;19.10;;;11.10;;
4307;SDS011;2167;53.448;9.984;2023-03-12T18:55:57;27.70;;;10.90;;
4307;SDS011;2167;53.448;9.984;2023-03-12T18:58:24;18.97;;;8.43;;
4307;SDS011;2167;53.448;9.984;2023-03-12T19:00:51;22.23;;;11.37;;
4307;SDS011;2167;53.448;9.984;2023-03-12T19:03:19;21.97;;;10.20;;
4307;SDS011;2167;53.448;9.984;2023-03-12T19:05:45;26.50;;;10.50;;
4307;SDS011;2167;53.448;9.984;2023-03-12T19:08:11;32.53;;;14.70;;
4307;SDS011;2167;53.448;9.984;2023-03-12T19:10:39;26.93;;;11.40;;
4307;SDS011;2167;53.448;9.984;2023-03-12T19:13:06;25.67;;;10.63;;
4307;SDS011;2167;53.448;9.984;2023-03-12T19:15:32;22.13;;;10.77;;
4307;SDS011;2167;53.448;9.984;2023-03-12T19:18:01;27.80;;;13.57;;
4307;SDS011;2167;53.448;9.984;2023-03-12T19:20:26;24.57;;;11.57;;
4307;SDS011;2167;53.448;9.984;2023-03-12T19:22:52;17.47;;;8.93;;
4307;SDS011;2167;53.448;9.984;2023-03-12T19:25:18;28.60;;;13.57;;
4307;SDS011;2167;53.448;9.984;2023-03-12T19:27:44;27.73;;;10.40;;
4307;SDS011;2167;53.448;9.984;2023-03-12T19:30:10;25.07;;;10.57;;
4307;SDS011;2167;53.448;9.984;2023-03-12T19:32:37;29.20;;;11.30;;
4307;SDS011;2167;53.448;9.984;2023-03-12T19:35:03;24.60;;;10.43;;
4307;SDS011;2167;53.448;9.984;2023-03-12T19:37:29;22.13;;;10.00;;
4307;SDS011;2167;53.448;9.984;2023-03-12T19:39:55;33.77;;;11.80;;
4307;SDS011;2167;53.448;9.984;2023-03-12T19:42:20;28.37;;;12.23;;
4307;SDS011;2167;53.448;9.984;2023-03-12T19:44:46;28.80;;;12.80;;
4307;SDS011;2167;53.448;9.984;2023-03-12T19:47:13;26.90;;;12.07;;
4307;SDS011;2167;53.448;9.984;2023-03-12T19:49:40;24.87;;;11.90;;
4307;SDS011;2167;53.448;9.984;2023-03-12T19:52:06;34.40;;;14.30;;
4307;SDS011;2167;53.448;9.984;2023-03-12T19:54:32;39.83;;;12.90;;
4307;SDS011;2167;53.448;9.984;2023-03-12T19:56:57;37.93;;;13.43;;
4307;SDS011;2167;53.448;9.984;2023-03-12T19:59:23;34.03;;;14.10;;
4307;SDS011;2167;53.448;9.984;2023-03-12T20:01:49;47.87;;;17.70;;
4307;SDS011;2167;53.448;9.984;2023-03-12T20:04:14;31.00;;;12.77;;
4307;SDS011;2167;53.448;9.984;2023-03-12T20:06:40;37.20;;;11.87;;
4307;SDS011;2167;53.448;9.984;2023-03-12T20:09:06;26.40;;;12.97;;
4307;SDS011;2167;53.448;9.984;2023-03-12T20:11:32;20.83;;;10.00;;
4307;SDS011;2167;53.448;9.984;2023-03-12T20:13:59;32.93;;;10.97;;
4307;SDS011;2167;53.448;9.984;2023-03-12T20:16:25;30.40;;;11.47;;
4307;SDS011;2167;53.448;9.984;2023-03-12T20:18:51;26.87;;;10.70;;
4307;SDS011;2167;53.448;9.984;2023-03-12T20:21:17;35.13;;;12.53;;
4307;SDS011;2167;53.448;9.984;2023-03-12T20:23:42;33.53;;;11.90;;
4307;SDS011;2167;53.448;9.984;2023-03-12T20:26:08;31.93;;;10.13;;
4307;SDS011;2167;53.448;9.984;2023-03-12T20:28:34;21.00;;;10.50;;
4307;SDS011;2167;53.448;9.984;2023-03-12T20:31:10;20.97;;;9.77;;
4307;SDS011;2167;53.448;9.984;2023-03-12T20:33:37;18.87;;;7.80;;